Terminal Aerodrome Forecast
Issued by NWS

Home | Current Version | Previous Version | Text Only | Print | Product List | Glossary On
Versions: 1 2 3 4 5 6 7 8 9 10 11 12 13 14 15 16 17 18 19 20 21 22 23 24 25 26 27 28
000
FTAK31 PAFA 191120
TAFAMC
TAF
PAMC 191120Z 1912/2012 28009KT P6SM BKN040 OVC070
     FM191400 25004KT P6SM BCFG FEW007 SCT025 BKN060
     FM192000 22005KT P6SM SCT035 OVC070
     FM200000 21007KT 6SM -RA BR OVC025=

USA.gov is the U.S. government's official web portal to all federal, state and local government web resources and services.